Latest Weather Observations for Mt Wellington

IDT60901

Issued at 7:55 pm EDT Thursday 23 October 2014 (issued every 10 minutes, with the page automatically refreshed every 10 minutes)

About weather observations | Map of Hobart area stations | Latest observations for Hobart area | Other Formats
Station Details ID: 094087 Name: MOUNT WELLINGTON Lat: -42.90 Lon: 147.24 Height: 1260.47 m
Data from the previous 72 hours. | See also: Recent months at Mt Wellington
Date/Time
EDT
Tmp

°C
App
Tmp
°C
Dew
Point
°C
Rel
Hum
%
Delta-T

°C
Wind Press
QNH
hPa
Press
MSL
hPa
Rain
since
9 am
mm
Dir
 
Spd
km/h
Gust
km/h
Spd
kts
Gust
kts
23/07:30pm 5.3 -0.7 -3.0 55 3.2 N 19 24 10 13 - - 0.0
23/07:00pm 5.0 -0.5 0.6 73 1.9 N 19 26 10 14 - - 0.0
23/06:30pm 5.2 0.1 1.0 74 1.8 N 17 22 9 12 - - 0.0
23/06:00pm 6.1 1.4 1.2 71 2.1 N 15 19 8 10 - - 0.0
23/05:30pm 6.6 1.6 1.5 70 2.2 N 17 22 9 12 - - 0.0
23/05:00pm 7.4 2.7 2.9 73 2.0 N 17 20 9 11 - - 0.0
23/04:30pm 7.2 2.4 2.5 72 2.1 N 17 22 9 12 - - 0.0
23/04:00pm 7.0 2.5 1.9 70 2.3 N 15 20 8 11 - - 0.0
23/03:30pm 7.4 2.5 2.3 70 2.3 NNE 17 22 9 12 - - 0.0
23/03:00pm 8.7 4.0 0.7 57 3.5 NNE 15 20 8 11 - - 0.0
23/02:30pm 8.5 4.4 -3.3 43 4.7 NE 9 13 5 7 - - 0.0
23/02:00pm 6.7 3.6 1.2 68 2.4 ESE 7 11 4 6 - - 0.0
23/01:30pm 7.8 3.7 -7.1 34 5.4 ESE 7 13 4 7 - - 0.0
23/01:00pm 5.8 2.3 1.3 73 1.9 SSE 9 11 5 6 - - 0.0
23/12:30pm 5.4 2.0 2.1 79 1.4 SE 9 13 5 7 - - 0.0
23/12:00pm 6.9 3.5 -0.5 59 3.1 SSE 7 11 4 6 - - 0.0
23/11:30am 4.9 1.5 1.7 80 1.4 S 9 13 5 7 - - 0.0
23/11:00am 5.4 1.9 1.3 75 1.8 S 9 15 5 8 - - 0.0
23/10:30am 5.0 1.8 0.6 73 1.9 S 7 13 4 7 - - 0.0
23/10:00am 5.3 2.7 0.9 73 1.9 W 4 9 2 5 - - 0.0
23/09:30am 2.7 -0.4 0.1 83 1.1 S 6 9 3 5 - - 0.0
23/09:00am 3.1 -1.1 -1.1 74 1.7 S 11 17 6 9 - - 1.2
23/08:30am 2.1 -2.3 0.5 89 0.7 S 13 19 7 10 - - 1.2
23/08:00am 2.6 -2.2 -2.9 67 2.1 S 13 24 7 13 - - 1.2
23/07:30am 1.1 -4.2 -0.7 88 0.7 S 17 26 9 14 - - 1.2
23/07:00am 0.4 -5.7 0.1 98 0.1 SSW 22 30 12 16 - - 1.2
23/06:30am 0.1 -7.2 -0.3 97 0.2 SSW 28 35 15 19 - - 1.2
23/06:00am -0.1 -6.9 -1.8 88 0.6 SSW 24 33 13 18 - - 1.2
23/05:30am 3.4 -4.8 -7.4 45 3.8 S 28 37 15 20 - - 1.2
23/05:00am 0.8 -7.7 -3.3 74 1.5 SSW 32 37 17 20 - - 1.2
23/04:30am 0.3 -8.2 -1.8 86 0.8 SSW 33 41 18 22 - - 1.2
23/04:00am 1.2 -8.1 0.9 98 0.1 SW 39 44 21 24 - - 1.2
23/03:30am 2.0 -7.1 1.7 98 0.1 SSW 39 48 21 26 - - 1.2
23/03:00am 2.5 -6.5 2.2 98 0.1 SSW 39 46 21 25 - - 1.0
23/02:30am 3.2 -6.7 2.9 98 0.1 SW 44 52 24 28 - - 1.0
23/02:00am 3.6 -4.9 3.3 98 0.1 SSW 37 44 20 24 - - 0.8
23/01:30am 4.5 -3.0 4.2 98 0.1 SSW 33 39 18 21 - - 0.8
23/01:00am 5.0 -2.8 4.7 98 0.1 SW 35 43 19 23 - - 0.6
23/12:30am 5.1 -2.3 4.8 98 0.1 SW 33 41 18 22 - - 0.4
23/12:00am 5.9 -1.4 5.6 98 0.1 SW 33 41 18 22 - - 0.2
 
Date/Time
EDT
Tmp

°C
App
Tmp
°C
Dew
Point
°C
Rel
Hum
%
Delta-T

°C
Wind Press
QNH
hPa
Press
MSL
hPa
Rain
since
9 am
mm
Dir
 
Spd
km/h
Gust
km/h
Spd
kts
Gust
kts
22/11:30pm 6.6 -0.5 6.3 98 0.1 SW 33 43 18 23 - - 0.0
22/11:00pm 6.9 -0.9 6.6 98 0.1 SW 37 44 20 24 - - 0.0
22/10:30pm 7.1 0.3 6.8 98 0.1 SW 32 41 17 22 - - 0.0
22/10:00pm 7.2 -0.5 6.9 98 0.1 WSW 37 46 20 25 - - 0.0
22/09:30pm 7.4 0.5 7.1 98 0.1 WSW 33 41 18 22 - - 0.0
22/09:00pm 7.3 2.0 6.9 97 0.2 W 24 32 13 17 - - 0.0
22/08:30pm 8.0 2.7 6.9 93 0.5 W 24 30 13 16 - - 0.0
22/08:00pm 8.0 2.6 6.5 90 0.7 W 24 30 13 16 - - 0.0
22/07:30pm 9.3 3.4 6.0 80 1.6 WSW 26 33 14 18 - - 0.0
22/07:00pm 10.9 5.6 5.2 68 2.8 W 22 28 12 15 - - 0.0
22/06:30pm 13.0 9.2 5.7 61 3.7 W 15 19 8 10 - - 0.0
22/06:00pm 13.4 7.9 5.8 60 3.9 NNW 24 32 13 17 - - 0.0
22/05:30pm 12.6 5.9 5.8 63 3.4 WSW 30 37 16 20 - - 0.0
22/05:00pm 14.2 9.2 4.5 52 4.8 W 20 24 11 13 - - 0.0
22/04:30pm 15.1 8.9 4.2 48 5.4 WNW 26 33 14 18 - - 0.0
22/04:00pm 14.8 8.7 4.8 51 5.0 W 26 35 14 19 - - 0.0
22/03:30pm 15.7 11.9 3.8 45 5.9 W 13 20 7 11 - - 0.0
22/03:00pm 17.4 11.5 1.4 34 7.6 WNW 22 35 12 19 - - 0.0
22/02:30pm 18.9 15.3 3.1 35 7.9 NNW 11 20 6 11 - - 0.0
22/02:00pm 18.3 14.2 2.2 34 7.9 NW 13 22 7 12 - - 0.0
22/01:30pm 18.5 12.7 0.2 29 8.6 WNW 20 32 11 17 - - 0.0
22/01:00pm 17.6 11.5 -2.6 25 8.9 W 20 30 11 16 - - 0.0
22/12:30pm 17.5 9.8 -6.3 19 9.7 W 26 39 14 21 - - 0.0
22/12:00pm 18.1 9.5 -14.0 10 11.3 W 28 35 15 19 - - 0.0
22/11:30am 17.8 8.4 -14.2 10 11.1 W 32 41 17 22 - - 0.0
22/11:00am 17.2 7.7 -15.9 9 11.1 W 32 46 17 25 - - 0.0
22/10:30am 17.6 9.1 -18.6 7 11.5 W 26 43 14 23 - - 0.0
22/10:00am 16.2 9.6 -8.8 17 9.6 WNW 19 35 10 19 - - 0.0
22/09:30am 15.7 8.1 -17.0 9 10.5 W 22 30 12 16 - - 0.0
22/09:00am 15.9 7.9 -16.9 9 10.5 W 24 33 13 18 - - 0.0
22/08:30am 13.3 6.2 -14.5 13 9.1 W 20 30 11 16 - - 0.0
22/08:00am 13.3 5.8 -13.6 14 8.9 W 22 28 12 15 - - 0.0
22/07:30am 13.2 6.1 -14.6 13 9.0 W 20 26 11 14 - - 0.0
22/07:00am 11.5 4.5 -15.0 14 8.3 W 19 22 10 12 - - 0.0
22/06:30am 11.7 2.8 -20.1 9 9.0 WNW 28 33 15 18 - - 0.0
22/06:00am 11.0 1.7 -19.4 10 8.6 WNW 30 35 16 19 - - 0.0
22/05:30am 8.8 -1.1 -12.3 21 6.8 WNW 35 41 19 22 - - 0.0
22/05:00am 8.8 -0.5 -12.9 20 6.9 WNW 32 37 17 20 - - 0.0
22/04:30am 8.1 -1.1 -10.7 25 6.2 WNW 32 37 17 20 - - 0.0
22/04:00am 9.1 -0.8 -13.3 19 7.1 NW 35 41 19 22 - - 0.0
22/03:30am 9.9 0.2 -16.3 14 7.8 NW 33 41 18 22 - - 0.0
22/03:00am 9.3 -0.7 -15.2 16 7.4 NNW 35 43 19 23 - - 0.0
22/02:30am 8.5 0.1 -10.9 24 6.4 NNW 28 32 15 17 - - 0.0
22/02:00am 7.9 -1.6 -7.4 33 5.5 NNW 35 41 19 22 - - 0.0
22/01:30am 7.4 -1.3 -3.4 46 4.2 NNW 33 41 18 22 - - 0.0
22/01:00am 7.4 0.2 -1.8 52 3.7 NNW 26 35 14 19 - - 0.0
22/12:30am 6.9 1.3 -0.1 61 2.9 NNW 19 24 10 13 - - 0.0
22/12:00am 6.6 2.2 0.1 63 2.7 NW 13 17 7 9 - - 0.0
 
Date/Time
EDT
Tmp

°C
App
Tmp
°C
Dew
Point
°C
Rel
Hum
%
Delta-T

°C
Wind Press
QNH
hPa
Press
MSL
hPa
Rain
since
9 am
mm
Dir
 
Spd
km/h
Gust
km/h
Spd
kts
Gust
kts
21/11:30pm 7.4 2.7 0.6 62 2.9 NW 15 19 8 10 - - 0.0
21/11:00pm 6.9 2.4 -0.1 61 2.9 NW 13 17 7 9 - - 0.0
21/10:30pm 8.5 3.7 0.2 56 3.6 NNW 15 17 8 9 - - 0.0
21/10:00pm 8.2 3.4 0.4 58 3.4 NNW 15 17 8 9 - - 0.0
21/09:30pm 7.3 2.2 0.5 62 2.9 NNW 17 17 9 9 - - 0.0
21/09:00pm 7.1 3.1 0.5 63 2.8 NNW 11 15 6 8 - - 0.0
21/08:30pm 6.3 2.2 2.2 75 1.8 N 13 15 7 8 - - 0.0
21/08:00pm 6.8 2.7 2.5 74 1.9 N 13 17 7 9 - - 0.0
21/07:30pm 7.6 3.4 1.7 66 2.6 N 13 17 7 9 - - 0.0
21/07:00pm 8.2 3.9 0.9 60 3.2 N 13 15 7 8 - - 0.0
21/06:30pm 8.9 4.6 0.9 57 3.5 N 13 17 7 9 - - 0.0
21/06:00pm 9.6 5.0 1.8 58 3.5 N 15 19 8 10 - - 0.0
21/05:30pm 9.8 5.1 0.9 54 3.9 N 15 20 8 11 - - 0.0
21/05:00pm 10.1 5.7 0.4 51 4.3 N 13 19 7 10 - - 0.0
21/04:30pm 10.6 6.3 0.9 51 4.3 N 13 20 7 11 - - 0.0
21/04:00pm 10.5 6.6 1.1 52 4.2 N 11 17 6 9 - - 0.0
21/03:30pm 10.1 5.4 1.2 54 4.0 N 15 20 8 11 - - 0.0
21/03:00pm 10.7 6.7 3.0 59 3.6 N 13 20 7 11 - - 0.0
21/02:30pm 10.2 5.8 2.8 60 3.4 N 15 19 8 10 - - 0.0
21/02:00pm 8.8 4.3 2.2 63 3.0 N 15 24 8 13 - - 0.0
21/01:30pm 8.8 3.7 2.8 66 2.8 N 19 28 10 15 - - 0.0
21/01:00pm 7.7 1.8 2.0 67 2.5 N 22 32 12 17 - - 0.0
21/12:30pm 6.7 1.5 2.2 73 2.0 N 19 28 10 15 - - 0.0
21/12:00pm 6.1 0.8 1.6 73 2.0 N 19 26 10 14 - - 0.0
21/11:30am 5.4 0.3 0.6 71 2.0 N 17 24 9 13 - - 0.0
21/11:00am 5.5 0.8 1.1 73 1.9 N 15 20 8 11 - - 0.0
21/10:30am 6.4 3.0 1.9 73 2.0 NNE 9 13 5 7 - - 0.0
21/10:00am 5.0 1.4 0.4 72 1.9 N 9 13 5 7 - - 0.0
21/09:30am 4.9 1.7 1.0 76 1.7 N 7 11 4 6 - - 0.0
21/09:00am 4.5 1.3 0.6 76 1.6 NNE 7 11 4 6 - - 0.0
21/08:30am 3.9 1.2 0.2 77 1.5 N 4 7 2 4 - - 0.0
21/08:00am 4.0 1.0 0.5 78 1.5 NNE 6 9 3 5 - - 0.0
21/07:30am 3.9 0.8 0.1 76 1.6 ESE 6 9 3 5 - - 0.0
21/07:00am 3.1 0.3 -0.5 77 1.4 SE 4 6 2 3 - - 0.0
21/06:30am 2.2 -1.1 -1.2 78 1.3 S 6 7 3 4 - - 0.0
21/06:00am 2.3 -1.2 -1.1 78 1.3 SSW 7 11 4 6 - - 0.0
21/05:30am 1.4 -4.0 -1.5 81 1.1 SW 17 17 9 9 - - 0.0
21/05:00am 1.5 -3.5 -1.2 82 1.0 SW 15 17 8 9 - - 0.0
21/04:30am 1.2 -4.5 -1.0 85 0.9 WSW 19 20 10 11 - - 0.0
21/04:00am 1.0 -4.3 -0.9 87 0.7 WSW 17 19 9 10 - - 0.0
21/03:30am 0.6 -4.7 -0.5 92 0.4 W 17 19 9 10 - - 0.0
21/03:00am 0.6 -4.2 0.0 96 0.2 W 15 17 8 9 - - 0.0
21/02:30am 0.0 -4.9 -0.3 98 0.1 NNW 15 19 8 10 - - 0.0
21/02:00am -0.6 -5.6 -0.9 98 0.1 NNW 15 19 8 10 - - 0.0
21/01:30am -0.4 -6.3 -0.7 98 0.1 NNW 20 24 11 13 - - 0.0
21/01:00am -0.3 -6.5 -0.6 98 0.1 NNW 22 26 12 14 - - 0.0
21/12:30am -0.4 -6.3 -0.7 98 0.1 NNW 20 26 11 14 - - 0.0
21/12:00am -0.2 -6.1 -0.5 98 0.1 N 20 26 11 14 - - 0.0
 
Date/Time
EDT
Tmp

°C
App
Tmp
°C
Dew
Point
°C
Rel
Hum
%
Delta-T

°C
Wind Press
QNH
hPa
Press
MSL
hPa
Rain
since
9 am
mm
Dir
 
Spd
km/h
Gust
km/h
Spd
kts
Gust
kts
20/11:30pm -0.1 -5.9 -0.4 98 0.1 N 20 26 11 14 - - 0.0
20/11:00pm -0.1 -5.8 -0.5 97 0.2 N 19 24 10 13 - - 0.0
20/10:30pm 0.1 -4.8 -0.3 97 0.2 NNE 15 19 8 10 - - 0.0
20/10:00pm 0.1 -4.0 -0.3 97 0.2 NNE 11 17 6 9 - - 0.0
20/09:30pm 0.3 -3.4 -0.1 97 0.2 NE 9 11 5 6 - - 0.0
20/09:00pm 0.0 -3.8 -0.7 95 0.3 NNE 9 11 5 6 - - 0.0
20/08:30pm 0.1 -3.1 -0.7 94 0.3 NE 6 7 3 4 - - 0.0
20/08:00pm 0.5 -2.7 -0.5 93 0.4 NNE 6 9 3 5 - - 0.0

Latest Capital City Observations: Canberra | Sydney | Melbourne | Brisbane | Adelaide | Perth | Hobart | Darwin

Other Formats:

Comma delimited format used in spreadsheet applications
http://www.bom.gov.au/fwo/IDT60901/IDT60901.95979.axf

JavaScript Object Notation format (JSON) in row-major order
http://www.bom.gov.au/fwo/IDT60901/IDT60901.95979.json